Time;durP1;ratioP1;P1;durP2;ratioP2;P2;SDS_P1;SDS_P2;PMS_P1;PMS_P2;Temp;Humidity;BMP_temperature;BMP_pressure;BME280_temperature;BME280_humidity;BME280_pressure;Samples;Min_cycle;Max_cycle;Signal;HPM_P1;HPM_P2
2021/04/28 17:17:02;;;;;;;10.93;2.50;;;19.80;55.50;;;;;;5146563;27;20308;-72
2021/04/28 17:19:27;;;;;;;7.50;2.33;;;19.00;55.70;;;;;;5145241;27;20415;-72
2021/04/28 17:21:53;;;;;;;9.10;2.17;;;18.70;57.60;;;;;;5126457;27;20076;-72
2021/04/28 17:24:20;;;;;;;15.20;2.42;;;18.50;58.50;;;;;;5127670;27;20578;-72
2021/04/28 17:26:47;;;;;;;8.93;2.20;;;18.30;60.60;;;;;;5105947;27;20038;-72
2021/04/28 17:29:13;;;;;;;5.93;2.03;;;18.00;60.60;;;;;;5129293;27;20031;-72
2021/04/28 17:31:39;;;;;;;3.35;1.77;;;17.60;62.90;;;;;;5125226;28;20030;-72
2021/04/28 17:34:10;;;;;;;4.60;2.10;;;17.80;64.00;;;;;;5108245;28;20058;-72
2021/04/28 17:36:37;;;;;;;9.60;3.45;;;17.60;64.20;;;;;;5142896;27;20055;-72
2021/04/28 17:39:04;;;;;;;4.18;2.33;;;17.40;65.30;;;;;;5121285;28;20024;-72
2021/04/28 17:41:30;;;;;;;4.00;2.10;;;17.20;65.70;;;;;;5108861;27;20047;-72
2021/04/28 17:43:55;;;;;;;6.43;1.85;;;17.10;67.00;;;;;;5128490;27;20060;-72
2021/04/28 17:46:21;;;;;;;3.97;1.83;;;17.20;68.00;;;;;;5129432;27;20019;-72
2021/04/28 17:48:46;;;;;;;4.15;1.65;;;16.90;69.00;;;;;;5109178;28;20023;-72
2021/04/28 17:51:16;;;;;;;4.93;2.00;;;16.80;70.50;;;;;;5128141;28;20401;-72
2021/04/28 17:53:42;;;;;;;4.95;1.75;;;16.70;72.40;;;;;;5128124;27;20036;-71
2021/04/28 17:56:08;;;;;;;5.28;1.90;;;17.30;74.90;;;;;;5109518;27;20038;-72
2021/04/28 17:58:34;;;;;;;3.72;1.98;;;16.60;77.10;;;;;;5128232;27;20031;-72
2021/04/28 18:01:00;;;;;;;4.45;2.83;;;16.60;79.60;;;;;;5109605;28;20080;-72
2021/04/28 18:03:26;;;;;;;6.10;3.33;;;16.70;82.40;;;;;;5109393;28;20407;-72
2021/04/28 18:05:53;;;;;;;3.83;2.47;;;16.60;85.80;;;;;;5128134;28;20031;-72
2021/04/28 18:08:19;;;;;;;10.57;3.03;;;16.50;89.60;;;;;;5127615;27;20038;-72
2021/04/28 18:10:44;;;;;;;4.47;2.13;;;16.40;91.30;;;;;;5126411;27;20031;-72
2021/04/28 18:13:11;;;;;;;5.28;1.92;;;16.30;92.80;;;;;;5127819;27;20039;-72
2021/04/28 18:15:40;;;;;;;5.63;2.00;;;16.20;93.40;;;;;;5127736;27;20050;-72
2021/04/28 18:18:09;;;;;;;2.58;1.88;;;16.20;95.40;;;;;;5127217;27;20097;-72
2021/04/28 18:20:35;;;;;;;4.05;2.00;;;16.20;95.70;;;;;;5126805;27;20083;-72
2021/04/28 18:23:01;;;;;;;3.60;1.90;;;16.00;97.80;;;;;;5108508;27;20125;-72
2021/04/28 18:25:27;;;;;;;4.28;2.10;;;16.00;98.50;;;;;;5127059;27;20054;-72
2021/04/28 18:27:53;;;;;;;5.55;1.80;;;16.00;99.90;;;;;;5115898;27;20488;-72
2021/04/28 18:30:22;;;;;;;4.72;1.70;;;15.90;99.90;;;;;;5113294;28;20030;-72
2021/04/28 18:32:51;;;;;;;4.80;1.55;;;15.80;99.90;;;;;;5114156;28;20399;-72
2021/04/28 18:35:17;;;;;;;4.70;2.30;;;15.60;99.90;;;;;;5113456;28;20111;-72
2021/04/28 18:37:42;;;;;;;4.63;2.00;;;15.60;99.90;;;;;;5095399;28;20110;-72
2021/04/28 18:40:14;;;;;;;6.65;2.13;;;15.70;99.90;;;;;;5113093;28;20032;-72
2021/04/28 18:42:41;;;;;;;5.78;2.67;;;15.20;99.90;;;;;;5114142;28;20012;-72
2021/04/28 18:45:09;;;;;;;5.75;2.30;;;14.80;99.90;;;;;;5095619;28;20040;-73
2021/04/28 18:47:36;;;;;;;4.13;2.20;;;14.40;99.90;;;;;;5112526;28;20475;-72
2021/04/28 18:50:04;;;;;;;8.00;2.30;;;14.60;99.90;;;;;;5112957;28;20088;-73
2021/04/28 18:52:30;;;;;;;6.90;2.50;;;13.70;99.90;;;;;;5113626;28;20019;-74
2021/04/28 18:54:57;;;;;;;5.55;2.50;;;13.40;99.90;;;;;;5088616;28;20039;-74
2021/04/28 18:57:23;;;;;;;4.20;2.70;;;13.20;99.90;;;;;;5095635;28;20147;-74
2021/04/28 18:59:49;;;;;;;4.53;2.65;;;13.00;99.90;;;;;;5112737;28;20031;-72
2021/04/28 19:02:15;;;;;;;4.75;2.70;;;13.20;99.90;;;;;;5113900;28;20028;-73
2021/04/28 19:04:40;;;;;;;5.13;2.83;;;12.80;99.90;;;;;;5113222;28;20396;-73
2021/04/28 19:07:06;;;;;;;6.80;2.58;;;12.80;99.90;;;;;;5113519;28;20103;-73
2021/04/28 19:09:32;;;;;;;4.15;2.60;;;13.50;99.90;;;;;;5112513;28;20019;-72
2021/04/28 19:11:59;;;;;;;6.30;2.90;;;12.60;99.90;;;;;;5112919;28;20039;-72
2021/04/28 19:14:26;;;;;;;6.25;2.70;;;12.70;99.90;;;;;;5094941;28;20032;-72
2021/04/28 19:16:51;;;;;;;5.78;3.10;;;13.00;99.90;;;;;;5112738;28;20063;-72
2021/04/28 19:19:17;;;;;;;4.45;2.60;;;13.50;99.90;;;;;;5113094;28;20113;-73
2021/04/28 19:21:43;;;;;;;6.68;2.80;;;12.70;99.90;;;;;;5098053;28;20100;-73
2021/04/28 19:24:09;;;;;;;4.93;3.03;;;12.60;99.90;;;;;;5084339;28;20027;-72
2021/04/28 19:26:35;;;;;;;6.63;3.22;;;12.80;99.90;;;;;;5113385;28;20035;-73
2021/04/28 19:29:08;;;;;;;6.80;3.05;;;12.70;99.90;;;;;;5112670;28;20040;-73
2021/04/28 19:31:33;;;;;;;6.63;2.90;;;12.70;99.90;;;;;;5108169;27;20027;-73
2021/04/28 19:34:00;;;;;;;7.50;2.72;;;12.80;99.90;;;;;;5111329;28;20036;-73
2021/04/28 19:36:26;;;;;;;6.40;2.60;;;12.80;99.90;;;;;;5095139;28;20547;-73
2021/04/28 19:38:52;;;;;;;5.75;3.13;;;13.00;99.90;;;;;;5112176;28;20158;-73
2021/04/28 19:41:17;;;;;;;7.70;2.97;;;12.90;99.90;;;;;;5113501;28;20020;-72
2021/04/28 19:43:43;;;;;;;5.85;2.90;;;12.60;99.90;;;;;;5113116;28;20065;-73
2021/04/28 19:46:09;;;;;;;5.38;2.78;;;12.70;99.90;;;;;;5094240;28;20132;-73
2021/04/28 19:48:36;;;;;;;7.85;3.22;;;12.70;99.90;;;;;;5112069;28;20027;-73
2021/04/28 19:51:03;;;;;;;6.95;3.05;;;12.50;99.90;;;;;;5111947;28;20027;-73
2021/04/28 19:53:29;;;;;;;6.65;3.28;;;12.50;99.90;;;;;;5093964;28;20032;-73
2021/04/28 19:55:55;;;;;;;4.70;3.10;;;12.40;99.90;;;;;;5112542;28;20411;-72
2021/04/28 19:58:21;;;;;;;4.70;2.80;;;12.50;99.90;;;;;;5077345;28;20027;-72
2021/04/28 20:00:48;;;;;;;4.68;3.47;;;12.70;99.90;;;;;;5072681;28;20081;-72
2021/04/28 20:03:15;;;;;;;5.47;3.15;;;12.30;99.90;;;;;;5092953;28;20617;-72
2021/04/28 20:05:45;;;;;;;6.93;3.75;;;12.30;99.90;;;;;;5093823;28;20039;-72
2021/04/28 20:08:11;;;;;;;9.48;4.22;;;12.20;99.90;;;;;;5111937;28;20019;-72
2021/04/28 20:10:38;;;;;;;8.35;3.58;;;12.10;99.90;;;;;;5094008;28;20039;-72
2021/04/28 20:13:04;;;;;;;8.27;3.78;;;12.00;99.90;;;;;;5093634;28;20028;-72
2021/04/28 20:15:29;;;;;;;5.80;3.70;;;12.20;99.90;;;;;;5093718;28;20039;-72
2021/04/28 20:17:55;;;;;;;6.72;3.78;;;11.70;99.90;;;;;;5111784;28;20484;-72
2021/04/28 20:20:21;;;;;;;6.75;4.68;;;11.90;99.90;;;;;;5110801;28;20119;-73
2021/04/28 20:22:46;;;;;;;8.85;4.80;;;11.80;99.90;;;;;;5094311;28;20024;-73
2021/04/28 20:25:13;;;;;;;6.32;4.93;;;12.20;99.90;;;;;;5112018;28;20059;-72
2021/04/28 20:27:38;;;;;;;8.05;5.13;;;11.40;99.90;;;;;;5093889;28;20028;-71
2021/04/28 20:30:06;;;;;;;7.32;5.30;;;11.40;99.90;;;;;;5101463;22;20715;-71
2021/04/28 20:32:32;;;;;;;10.05;5.80;;;11.30;99.90;;;;;;5075340;28;20480;-72
2021/04/28 20:34:57;;;;;;;8.43;5.30;;;11.30;99.90;;;;;;5064982;28;20040;-71
2021/04/28 20:37:23;;;;;;;10.88;6.38;;;11.20;99.90;;;;;;5059628;28;20025;-74
2021/04/28 20:39:49;;;;;;;7.72;5.85;;;11.50;99.90;;;;;;5057527;28;20440;-73
2021/04/28 20:42:16;;;;;;;7.53;5.55;;;11.20;99.90;;;;;;5059824;28;20024;-73
2021/04/28 20:44:42;;;;;;;9.90;7.03;;;11.50;99.90;;;;;;5056524;28;20087;-72
2021/04/28 20:47:08;;;;;;;9.10;6.78;;;11.10;99.90;;;;;;5061100;28;20024;-73
2021/04/28 20:49:33;;;;;;;12.63;7.03;;;12.30;99.90;;;;;;5060852;28;20533;-73
2021/04/28 20:51:59;;;;;;;9.57;6.97;;;11.00;99.90;;;;;;5071786;28;20024;-73
2021/04/28 20:54:25;;;;;;;11.15;7.22;;;11.20;99.90;;;;;;5060397;28;20135;-73
2021/04/28 20:56:50;;;;;;;12.02;8.63;;;12.20;99.90;;;;;;5051975;28;20544;-73
2021/04/28 20:59:16;;;;;;;13.63;9.40;;;11.30;99.90;;;;;;5051357;28;20025;-73
2021/04/28 21:01:41;;;;;;;11.80;9.02;;;12.10;99.90;;;;;;5051390;28;20029;-73
2021/04/28 21:04:07;;;;;;;12.90;9.30;;;11.90;99.90;;;;;;5051790;28;20104;-73
2021/04/28 21:06:40;;;;;;;12.77;9.93;;;11.30;99.90;;;;;;5051429;28;20032;-73
2021/04/28 21:09:09;;;;;;;13.43;10.13;;;12.10;99.90;;;;;;5050340;28;20389;-73
2021/04/28 21:11:34;;;;;;;13.48;9.32;;;11.00;99.90;;;;;;5051204;28;20037;-73
2021/04/28 21:14:00;;;;;;;12.20;9.18;;;11.20;99.90;;;;;;5050058;28;20110;-73
2021/04/28 21:16:27;;;;;;;11.90;8.55;;;12.40;99.90;;;;;;5051780;28;20059;-73
2021/04/28 21:18:53;;;;;;;10.60;8.23;;;11.00;99.90;;;;;;5051468;28;20162;-73
2021/04/28 21:21:18;;;;;;;10.00;8.32;;;12.20;99.90;;;;;;5051025;28;20100;-73
2021/04/28 21:23:44;;;;;;;12.55;8.27;;;11.60;99.90;;;;;;5051497;28;20389;-72
2021/04/28 21:26:10;;;;;;;12.52;9.38;;;11.10;99.90;;;;;;5051717;28;20048;-72
2021/04/28 21:28:36;;;;;;;11.45;8.93;;;12.00;99.90;;;;;;5051259;28;20032;-72
2021/04/28 21:31:04;;;;;;;11.07;8.98;;;11.70;99.90;;;;;;5051221;28;20033;-72
2021/04/28 21:33:30;;;;;;;14.90;9.00;;;11.00;99.90;;;;;;5051485;28;20044;-72
2021/04/28 21:35:55;;;;;;;12.13;9.07;;;11.10;99.90;;;;;;5051277;28;20029;-72
2021/04/28 21:38:21;;;;;;;13.35;9.25;;;11.20;99.90;;;;;;5051293;28;20082;-72
2021/04/28 21:40:47;;;;;;;15.38;9.88;;;11.00;99.90;;;;;;5050712;28;20393;-72
2021/04/28 21:43:12;;;;;;;13.15;9.60;;;11.20;99.90;;;;;;5051199;28;20108;-72
2021/04/28 21:45:38;;;;;;;14.55;9.50;;;11.10;99.90;;;;;;5050390;28;20511;-72
2021/04/28 21:48:05;;;;;;;12.95;9.43;;;11.00;99.90;;;;;;5051401;28;20021;-72
2021/04/28 21:50:30;;;;;;;16.33;10.20;;;11.00;99.90;;;;;;5050635;28;20116;-72
2021/04/28 21:52:57;;;;;;;13.48;9.98;;;11.10;99.90;;;;;;5051540;28;20116;-72
2021/04/28 21:55:23;;;;;;;13.55;9.20;;;11.10;99.90;;;;;;5051373;28;20065;-72
2021/04/28 21:57:48;;;;;;;15.88;10.73;;;11.20;99.90;;;;;;5051470;28;20444;-72
2021/04/28 22:00:14;;;;;;;15.43;10.40;;;11.10;99.90;;;;;;5050530;28;20108;-72
2021/04/28 22:02:41;;;;;;;16.67;11.88;;;11.00;99.90;;;;;;5053449;28;20033;-72
2021/04/28 22:05:07;;;;;;;16.23;11.48;;;11.10;99.90;;;;;;5054799;28;20069;-72
2021/04/28 22:07:33;;;;;;;16.38;11.25;;;11.00;99.90;;;;;;5054666;28;20029;-72
2021/04/28 22:09:58;;;;;;;15.90;11.20;;;12.10;99.90;;;;;;5054052;28;20120;-72
2021/04/28 22:12:24;;;;;;;13.90;10.18;;;11.10;99.90;;;;;;5054803;28;20459;-72
2021/04/28 22:14:51;;;;;;;13.95;10.70;;;11.30;99.90;;;;;;5054757;28;20465;-72
2021/04/28 22:17:16;;;;;;;15.13;11.02;;;11.40;99.90;;;;;;5054778;28;20111;-72
2021/04/28 22:19:42;;;;;;;17.52;11.38;;;11.80;99.90;;;;;;5062766;28;20120;-73
2021/04/28 22:22:08;;;;;;;13.90;10.05;;;11.80;99.90;;;;;;5044587;28;20033;-72
2021/04/28 22:24:34;;;;;;;12.38;9.73;;;11.70;99.90;;;;;;5045737;28;20041;-72
2021/04/28 22:27:00;;;;;;;15.40;11.55;;;11.10;99.90;;;;;;5070210;28;20060;-72
2021/04/28 22:29:26;;;;;;;15.10;11.70;;;11.50;99.90;;;;;;5041976;28;20045;-72
2021/04/28 22:31:51;;;;;;;14.15;11.18;;;11.20;99.90;;;;;;5034312;28;20025;-72
2021/04/28 22:34:17;;;;;;;18.85;12.88;;;12.30;99.90;;;;;;5044490;28;20040;-72
2021/04/28 22:36:43;;;;;;;17.08;13.18;;;11.30;99.90;;;;;;5054301;28;20489;-72
2021/04/28 22:39:08;;;;;;;17.63;13.68;;;11.20;99.90;;;;;;5045453;28;20025;-74
2021/04/28 22:41:34;;;;;;;18.70;13.43;;;11.70;99.90;;;;;;5034043;28;20482;-72
2021/04/28 22:44:00;;;;;;;15.70;12.38;;;11.70;99.90;;;;;;5041131;28;20366;-72
2021/04/28 22:46:26;;;;;;;18.13;13.52;;;11.60;99.90;;;;;;5054461;28;20049;-72
2021/04/28 22:48:52;;;;;;;21.08;13.43;;;11.20;99.90;;;;;;5053986;28;20033;-72
2021/04/28 22:51:17;;;;;;;19.73;13.45;;;11.00;99.90;;;;;;5053526;28;20029;-72
2021/04/28 22:53:43;;;;;;;17.77;13.70;;;11.40;99.90;;;;;;5054555;28;20025;-72
2021/04/28 22:56:10;;;;;;;19.30;14.55;;;12.20;99.90;;;;;;5054162;28;20050;-71
2021/04/28 22:58:35;;;;;;;18.85;14.65;;;11.30;99.90;;;;;;5053936;28;20039;-72
2021/04/28 23:01:01;;;;;;;18.02;14.52;;;11.30;99.90;;;;;;5054469;28;20691;-73
2021/04/28 23:03:27;;;;;;;17.85;13.65;;;11.30;99.90;;;;;;5056357;28;20108;-72
2021/04/28 23:05:52;;;;;;;17.23;13.82;;;11.60;99.90;;;;;;5052648;28;20033;-73
2021/04/28 23:08:18;;;;;;;20.23;14.90;;;11.00;99.90;;;;;;5054167;28;20103;-73
2021/04/28 23:10:45;;;;;;;20.63;14.93;;;11.20;99.90;;;;;;5053644;28;20080;-72
2021/04/28 23:13:10;;;;;;;22.23;15.48;;;11.20;99.90;;;;;;5053739;28;20401;-73
